createdAt,value
2018-08-12T00:00:55.749Z,2.50
2018-08-12T00:03:25.000Z,2.37
2018-08-12T00:05:53.941Z,2.57
2018-08-12T00:08:22.843Z,2.40
2018-08-12T00:10:51.735Z,2.40
2018-08-12T00:13:20.637Z,2.40
2018-08-12T00:15:49.553Z,2.23
2018-08-12T00:18:18.501Z,2.47
2018-08-12T00:20:47.382Z,2.60
2018-08-12T00:23:16.269Z,2.53
2018-08-12T00:25:45.170Z,2.83
2018-08-12T00:28:14.095Z,2.47
2018-08-12T00:30:43.002Z,2.90
2018-08-12T00:33:13.015Z,2.70
2018-08-12T00:35:41.930Z,2.43
2018-08-12T00:38:10.814Z,2.97
2018-08-12T00:40:39.728Z,2.87
2018-08-12T00:43:08.625Z,2.63
2018-08-12T00:45:37.529Z,2.60
2018-08-12T00:48:06.464Z,2.53
2018-08-12T00:50:35.334Z,2.73
2018-08-12T00:53:04.227Z,2.70
2018-08-12T00:55:33.259Z,2.90
2018-08-12T00:58:02.179Z,2.90
2018-08-12T01:00:31.061Z,2.70
2018-08-12T01:03:00.030Z,3.07
2018-08-12T01:05:28.874Z,3.00
2018-08-12T01:07:57.905Z,2.70
2018-08-12T01:10:26.818Z,3.17
2018-08-12T01:12:55.727Z,3.20
2018-08-12T01:15:24.643Z,3.47
2018-08-12T01:17:53.601Z,3.60
2018-08-12T01:20:24.121Z,3.17
2018-08-12T01:22:53.002Z,3.10
2018-08-12T01:25:22.237Z,3.00
2018-08-12T01:27:52.186Z,3.30
2018-08-12T01:30:22.066Z,3.00
2018-08-12T01:32:50.944Z,3.70
2018-08-12T01:35:19.914Z,3.67
2018-08-12T01:37:49.451Z,3.43
2018-08-12T01:40:19.119Z,3.23
2018-08-12T01:42:48.059Z,3.07
2018-08-12T01:45:18.476Z,3.07
2018-08-12T01:47:47.413Z,3.50
2018-08-12T01:50:17.518Z,3.27
2018-08-12T01:52:46.568Z,3.40
2018-08-12T01:55:15.839Z,3.40
2018-08-12T01:57:44.739Z,2.93
2018-08-12T02:00:18.947Z,3.33
2018-08-12T02:02:48.318Z,3.33
2018-08-12T02:05:17.594Z,3.43
2018-08-12T02:07:46.532Z,2.90
2018-08-12T02:10:15.451Z,3.53
2018-08-12T02:12:44.369Z,3.90
2018-08-12T02:15:13.351Z,3.50
2018-08-12T02:17:42.590Z,3.30
2018-08-12T02:20:12.221Z,3.60
2018-08-12T02:22:41.556Z,3.60
2018-08-12T02:25:11.225Z,3.83
2018-08-12T02:27:40.187Z,3.70
2018-08-12T02:30:10.850Z,4.20
2018-08-12T02:32:39.972Z,3.53
2018-08-12T02:35:09.255Z,4.23
2018-08-12T02:37:38.172Z,3.80
2018-08-12T02:40:08.097Z,3.90
2018-08-12T02:42:36.953Z,3.80
2018-08-12T02:45:08.945Z,3.83
2018-08-12T02:47:37.837Z,3.67
2018-08-12T02:50:06.909Z,4.00
2018-08-12T02:52:36.401Z,4.07
2018-08-12T02:55:06.164Z,4.10
2018-08-12T02:57:35.057Z,3.73
2018-08-12T03:00:05.968Z,3.60
2018-08-12T03:02:34.848Z,3.40
2018-08-12T03:05:04.049Z,3.77
2018-08-12T03:07:33.072Z,3.80
2018-08-12T03:10:01.955Z,3.60
2018-08-12T03:12:30.844Z,3.37
2018-08-12T03:14:59.780Z,3.60
2018-08-12T03:17:28.678Z,3.90
2018-08-12T03:19:57.584Z,3.80
2018-08-12T03:22:26.627Z,3.47
2018-08-12T03:24:55.430Z,4.00
2018-08-12T03:27:24.330Z,3.83
2018-08-12T03:29:53.212Z,3.80
2018-08-12T03:32:22.107Z,3.23
2018-08-12T03:34:51.106Z,3.67
2018-08-12T03:37:20.039Z,3.40
2018-08-12T03:39:48.956Z,3.77
2018-08-12T03:42:17.854Z,3.63
2018-08-12T03:44:46.753Z,3.50
2018-08-12T03:47:15.651Z,3.43
2018-08-12T03:49:44.597Z,3.27
2018-08-12T03:52:13.470Z,3.37
2018-08-12T03:54:42.369Z,3.33
2018-08-12T03:57:11.270Z,3.60
2018-08-12T03:59:40.165Z,3.20
2018-08-12T04:02:09.086Z,3.70
2018-08-12T04:04:38.147Z,3.40
2018-08-12T04:07:07.112Z,3.73
2018-08-12T04:09:35.997Z,3.23
2018-08-12T04:12:04.923Z,3.23
2018-08-12T04:14:33.863Z,3.20
2018-08-12T04:17:02.781Z,2.93
2018-08-12T04:19:31.974Z,2.93
2018-08-12T04:22:01.263Z,3.13
2018-08-12T04:24:30.184Z,3.13
2018-08-12T04:26:59.135Z,4.33
2018-08-12T04:29:28.403Z,3.20
2018-08-12T04:31:57.702Z,3.10
2018-08-12T04:34:26.956Z,3.10
2018-08-12T04:36:56.049Z,2.90
2018-08-12T04:39:24.953Z,2.67
2018-08-12T04:41:53.855Z,2.80
2018-08-12T04:44:22.740Z,2.80
2018-08-12T04:46:51.692Z,2.80
2018-08-12T04:49:20.591Z,2.77
2018-08-12T04:51:49.469Z,2.70
2018-08-12T04:54:18.519Z,2.43
2018-08-12T04:56:47.428Z,2.50
2018-08-12T04:59:16.540Z,2.70
2018-08-12T05:01:45.552Z,2.73
2018-08-12T05:04:14.430Z,2.60
2018-08-12T05:06:43.384Z,2.60
2018-08-12T05:09:12.685Z,2.70
2018-08-12T05:11:41.579Z,2.23
2018-08-12T05:14:10.455Z,2.40
2018-08-12T05:16:39.360Z,2.33
2018-08-12T05:19:08.273Z,2.60
2018-08-12T05:21:37.196Z,2.40
2018-08-12T05:24:07.166Z,2.40
2018-08-12T05:26:36.131Z,2.60
2018-08-12T05:29:05.110Z,2.33
2018-08-12T05:31:34.063Z,2.40
2018-08-12T05:34:03.081Z,2.50
2018-08-12T05:36:33.030Z,2.00
2018-08-12T05:39:01.897Z,2.00
2018-08-12T05:41:30.794Z,2.40
2018-08-12T05:43:59.743Z,2.00
2018-08-12T05:46:28.616Z,2.00
2018-08-12T05:48:57.532Z,2.10
2018-08-12T05:51:27.475Z,2.70
2018-08-12T05:53:57.266Z,1.90
2018-08-12T05:56:26.197Z,2.00
2018-08-12T05:58:55.081Z,2.10
2018-08-12T06:01:24.117Z,2.10
2018-08-12T06:03:53.062Z,1.90
2018-08-12T06:06:21.946Z,1.97
2018-08-12T06:08:50.856Z,1.93
2018-08-12T06:11:19.979Z,1.90
2018-08-12T06:13:48.954Z,1.80
2018-08-12T06:16:17.949Z,1.73
2018-08-12T06:18:46.849Z,2.00
2018-08-12T06:21:15.756Z,1.73
2018-08-12T06:23:44.668Z,1.80
2018-08-12T06:26:13.522Z,1.70
2018-08-12T06:28:42.437Z,1.50
2018-08-12T06:31:11.345Z,1.70
2018-08-12T06:33:40.252Z,2.27
2018-08-12T06:36:09.185Z,1.80
2018-08-12T06:38:38.034Z,1.60
2018-08-12T06:41:06.979Z,1.80
2018-08-12T06:43:35.921Z,1.80
2018-08-12T06:46:04.804Z,1.70
2018-08-12T06:48:33.715Z,1.80
2018-08-12T06:51:02.656Z,1.87
2018-08-12T06:53:31.574Z,2.20
2018-08-12T06:56:00.475Z,1.50
2018-08-12T06:58:29.357Z,2.00
2018-08-12T07:00:59.322Z,1.80
2018-08-12T07:03:28.257Z,1.90
2018-08-12T07:05:57.133Z,1.80
2018-08-12T07:08:26.021Z,1.70
2018-08-12T07:10:54.973Z,1.87
2018-08-12T07:13:24.029Z,2.00
2018-08-12T07:15:52.909Z,2.23
2018-08-12T07:18:21.819Z,2.07
2018-08-12T07:20:50.705Z,2.17
2018-08-12T07:23:19.711Z,1.70
2018-08-12T07:25:48.617Z,1.93
2018-08-12T07:28:17.545Z,1.90
2018-08-12T07:30:46.493Z,2.17
2018-08-12T07:33:15.409Z,1.97
2018-08-12T07:35:44.300Z,2.00
2018-08-12T07:38:13.198Z,2.10
2018-08-12T07:40:42.128Z,1.87
2018-08-12T07:43:11.004Z,2.10
2018-08-12T07:45:39.906Z,1.90
2018-08-12T07:48:08.804Z,1.80
2018-08-12T07:50:37.697Z,1.77
2018-08-12T07:53:06.645Z,2.03
2018-08-12T07:55:35.619Z,2.10
2018-08-12T07:58:04.415Z,1.80
2018-08-12T08:00:33.299Z,1.93
2018-08-12T08:03:02.208Z,2.00
2018-08-12T08:05:31.093Z,1.90
2018-08-12T08:08:00.066Z,1.73
2018-08-12T08:10:29.025Z,2.00
2018-08-12T08:12:57.912Z,1.73
2018-08-12T08:15:26.944Z,2.10
2018-08-12T08:17:55.856Z,1.67
2018-08-12T08:20:24.757Z,1.63
2018-08-12T08:22:53.668Z,1.83
2018-08-12T08:25:22.712Z,1.70
2018-08-12T08:27:52.616Z,1.67
2018-08-12T08:30:21.514Z,1.70
2018-08-12T08:32:50.429Z,1.53
2018-08-12T08:35:19.347Z,1.60
2018-08-12T08:37:48.242Z,1.60
2018-08-12T08:40:17.701Z,2.00
2018-08-12T08:42:46.894Z,1.67
2018-08-12T08:45:19.090Z,1.67
2018-08-12T08:47:49.100Z,1.50
2018-08-12T08:50:19.297Z,1.90
2018-08-12T08:52:48.182Z,1.77
2018-08-12T08:55:17.397Z,1.90
2018-08-12T08:57:46.834Z,1.80
2018-08-12T09:00:18.478Z,1.67
2018-08-12T09:02:49.815Z,1.67
2018-08-12T09:05:19.095Z,1.87
2018-08-12T09:07:48.231Z,1.60
2018-08-12T09:10:18.149Z,1.47
2018-08-12T09:12:47.125Z,1.50
2018-08-12T09:15:17.719Z,1.73
2018-08-12T09:17:47.123Z,1.97
2018-08-12T09:20:18.275Z,1.70
2018-08-12T09:22:47.199Z,1.60
2018-08-12T09:25:16.279Z,1.60
2018-08-12T09:27:45.184Z,1.50
2018-08-12T09:30:19.036Z,1.60
2018-08-12T09:32:48.083Z,1.30
2018-08-12T09:35:16.966Z,1.30
2018-08-12T09:37:45.881Z,1.70
2018-08-12T09:40:15.974Z,1.70
2018-08-12T09:42:45.873Z,1.53
2018-08-12T09:45:17.442Z,1.50
2018-08-12T09:47:46.485Z,1.03
2018-08-12T09:50:16.449Z,1.20
2018-08-12T09:52:45.906Z,1.73
2018-08-12T09:55:15.263Z,1.57
2018-08-12T09:57:44.153Z,1.50
2018-08-12T10:00:20.446Z,1.40
2018-08-12T10:02:50.377Z,1.77
2018-08-12T10:05:19.561Z,1.40
2018-08-12T10:07:48.457Z,1.40
2018-08-12T10:10:17.748Z,1.00
2018-08-12T10:12:46.941Z,1.23
2018-08-12T10:15:16.363Z,1.00
2018-08-12T10:17:47.289Z,1.50
2018-08-12T10:20:16.277Z,1.20
2018-08-12T10:22:45.222Z,1.40
2018-08-12T10:25:14.119Z,1.73
2018-08-12T10:27:43.103Z,1.83
2018-08-12T10:30:13.213Z,1.50
2018-08-12T10:32:42.122Z,1.40
2018-08-12T10:35:12.457Z,1.80
2018-08-12T10:37:41.845Z,1.60
2018-08-12T10:40:12.932Z,1.80
2018-08-12T10:42:42.057Z,1.63
2018-08-12T10:45:11.757Z,1.43
2018-08-12T10:47:40.891Z,1.50
2018-08-12T10:50:13.016Z,1.57
2018-08-12T10:52:43.112Z,1.57
2018-08-12T10:55:12.898Z,1.73
2018-08-12T10:57:41.933Z,1.70
2018-08-12T11:00:18.266Z,1.60
2018-08-12T11:02:47.759Z,1.30
2018-08-12T11:05:17.086Z,1.40
2018-08-12T11:07:47.983Z,1.47
2018-08-12T11:10:16.935Z,1.67
2018-08-12T11:12:45.916Z,1.50
2018-08-12T11:15:14.865Z,1.73
2018-08-12T11:17:43.764Z,1.80
2018-08-12T11:20:12.689Z,1.70
2018-08-12T11:22:41.599Z,1.60
2018-08-12T11:25:11.623Z,1.50
2018-08-12T11:27:40.580Z,1.20
2018-08-12T11:30:13.457Z,1.33
2018-08-12T11:32:42.454Z,1.40
2018-08-12T11:35:12.837Z,1.40
2018-08-12T11:37:43.290Z,1.60
2018-08-12T11:40:13.179Z,1.53
2018-08-12T11:42:42.152Z,1.70
2018-08-12T11:45:15.030Z,1.43
2018-08-12T11:47:44.374Z,1.37
2018-08-12T11:50:13.821Z,0.97
2018-08-12T11:52:43.552Z,1.20
2018-08-12T11:55:13.648Z,1.30
2018-08-12T11:57:42.527Z,1.30
2018-08-12T12:00:15.039Z,1.10
2018-08-12T12:02:44.823Z,1.30
2018-08-12T12:05:14.100Z,1.10
2018-08-12T12:07:43.133Z,1.10
2018-08-12T12:10:14.460Z,1.00
2018-08-12T12:12:44.443Z,1.20
2018-08-12T12:15:14.294Z,1.23
2018-08-12T12:17:43.728Z,1.00
2018-08-12T12:20:13.314Z,1.17
2018-08-12T12:22:42.887Z,1.00
2018-08-12T12:25:12.964Z,0.90
2018-08-12T12:27:41.825Z,1.17
2018-08-12T12:30:13.530Z,1.00
2018-08-12T12:32:43.171Z,0.90
2018-08-12T12:35:12.124Z,1.00
2018-08-12T12:37:41.415Z,1.10
2018-08-12T12:40:12.219Z,1.03
2018-08-12T12:42:41.245Z,0.90
2018-08-12T12:45:11.481Z,1.00
2018-08-12T12:47:40.622Z,0.90
2018-08-12T12:50:15.046Z,0.80
2018-08-12T12:52:43.964Z,1.10
2018-08-12T12:55:12.900Z,0.80
2018-08-12T12:57:41.824Z,1.00
2018-08-12T13:00:12.539Z,0.70
2018-08-12T13:02:41.416Z,1.00
2018-08-12T13:05:12.105Z,1.30
2018-08-12T13:07:41.084Z,0.90
2018-08-12T13:10:10.570Z,1.10
2018-08-12T13:12:40.137Z,0.70
2018-08-12T13:15:10.177Z,0.80
2018-08-12T13:17:39.472Z,0.70
2018-08-12T13:20:10.426Z,0.90
2018-08-12T13:22:39.316Z,0.90
2018-08-12T13:25:11.699Z,0.73
2018-08-12T13:27:42.066Z,0.80
2018-08-12T13:30:11.921Z,0.70
2018-08-12T13:32:41.910Z,0.90
2018-08-12T13:35:10.808Z,0.90
2018-08-12T13:37:39.697Z,0.80
2018-08-12T13:40:10.700Z,0.70
2018-08-12T13:42:40.231Z,0.83
2018-08-12T13:45:11.164Z,0.70
2018-08-12T13:47:41.281Z,0.80
2018-08-12T13:50:13.365Z,0.70
2018-08-12T13:52:42.305Z,1.00
2018-08-12T13:55:11.263Z,0.83
2018-08-12T13:57:40.220Z,1.00
2018-08-12T14:00:11.167Z,1.10
2018-08-12T14:02:41.606Z,0.80
2018-08-12T14:05:11.282Z,0.90
2018-08-12T14:07:40.233Z,0.90
2018-08-12T14:10:10.206Z,0.90
2018-08-12T14:12:39.384Z,0.83
2018-08-12T14:15:11.075Z,0.83
2018-08-12T14:17:40.739Z,0.70
2018-08-12T14:20:10.721Z,0.60
2018-08-12T14:22:39.823Z,0.80
2018-08-12T14:25:09.235Z,0.70
2018-08-12T14:27:38.572Z,0.70
2018-08-12T14:30:11.058Z,0.80
2018-08-12T14:32:39.962Z,0.90
2018-08-12T14:35:09.135Z,0.70
2018-08-12T14:37:38.702Z,0.80
2018-08-12T14:40:08.699Z,0.90
2018-08-12T14:42:37.682Z,1.00
2018-08-12T14:45:07.805Z,0.80
2018-08-12T14:47:37.074Z,0.70
2018-08-12T14:50:07.679Z,1.00
2018-08-12T14:52:36.618Z,1.20
2018-08-12T14:55:06.625Z,1.00
2018-08-12T14:57:35.652Z,1.00
2018-08-12T15:00:05.278Z,0.87
2018-08-12T15:02:34.154Z,1.20
2018-08-12T15:05:03.207Z,1.17
2018-08-12T15:07:32.106Z,1.20
2018-08-12T15:10:01.042Z,0.90
2018-08-12T15:12:29.953Z,1.00
2018-08-12T15:14:58.865Z,1.20
2018-08-12T15:17:27.833Z,1.70
2018-08-12T15:19:56.854Z,1.40
2018-08-12T15:22:25.841Z,1.20
2018-08-12T15:24:54.720Z,1.03
2018-08-12T15:27:23.651Z,1.10
2018-08-12T15:29:53.758Z,1.00
2018-08-12T15:32:22.647Z,0.90
2018-08-12T15:34:51.558Z,1.00
2018-08-12T15:37:20.528Z,1.10
2018-08-12T15:39:49.502Z,1.13
2018-08-12T15:42:18.541Z,1.00
2018-08-12T15:44:47.445Z,1.60
2018-08-12T15:47:16.540Z,1.13
2018-08-12T15:49:45.963Z,1.00
2018-08-12T15:52:14.859Z,1.07
2018-08-12T15:54:44.019Z,1.03
2018-08-12T15:57:13.389Z,1.03
2018-08-12T15:59:42.297Z,1.20
2018-08-12T16:02:11.192Z,1.10
2018-08-12T16:04:40.106Z,1.60
2018-08-12T16:07:10.032Z,1.30
2018-08-12T16:09:38.924Z,1.00
2018-08-12T16:12:08.886Z,1.30
2018-08-12T16:14:37.841Z,1.40
2018-08-12T16:17:07.056Z,4.53
2018-08-12T16:19:35.987Z,2.10
2018-08-12T16:22:04.965Z,1.40
2018-08-12T16:24:33.862Z,1.10
2018-08-12T16:27:02.805Z,1.20
2018-08-12T16:29:31.701Z,1.73
2018-08-12T16:32:00.619Z,1.90
2018-08-12T16:34:29.521Z,1.90
2018-08-12T16:36:58.447Z,1.83
2018-08-12T16:39:27.472Z,1.70
2018-08-12T16:41:56.338Z,1.40
2018-08-12T16:44:25.295Z,1.30
2018-08-12T16:46:54.173Z,1.30
2018-08-12T16:49:23.279Z,3.30
2018-08-12T16:51:52.124Z,2.10
2018-08-12T16:54:20.974Z,1.47
2018-08-12T16:56:50.015Z,1.40
2018-08-12T16:59:18.890Z,1.80
2018-08-12T17:01:47.865Z,1.57
2018-08-12T17:04:16.922Z,1.43
2018-08-12T17:06:45.734Z,1.53
2018-08-12T17:09:14.568Z,1.67
2018-08-12T17:11:43.698Z,1.30
2018-08-12T17:14:12.669Z,1.70
2018-08-12T17:16:41.686Z,1.90
2018-08-12T17:19:10.674Z,1.57
2018-08-12T17:21:39.684Z,1.57
2018-08-12T17:24:08.707Z,1.40
2018-08-12T17:26:37.767Z,1.60
2018-08-12T17:29:06.891Z,1.60
2018-08-12T17:31:35.955Z,1.60
2018-08-12T17:34:04.915Z,1.63
2018-08-12T17:36:33.871Z,1.50
2018-08-12T17:39:02.746Z,1.90
2018-08-12T17:41:31.675Z,1.80
2018-08-12T17:44:01.909Z,1.83
2018-08-12T17:46:30.798Z,1.90
2018-08-12T17:48:59.721Z,1.97
2018-08-12T17:51:28.645Z,1.60
2018-08-12T17:53:59.749Z,2.20
2018-08-12T17:56:29.114Z,2.00
2018-08-12T17:58:58.357Z,1.90
2018-08-12T18:01:27.262Z,1.80
2018-08-12T18:03:56.167Z,2.00
2018-08-12T18:06:25.061Z,2.00
2018-08-12T18:08:53.934Z,1.60
2018-08-12T18:11:22.892Z,1.90
2018-08-12T18:13:51.771Z,2.07
2018-08-12T18:16:20.664Z,1.70
2018-08-12T18:18:49.561Z,1.80
2018-08-12T18:21:18.422Z,1.70
2018-08-12T18:23:47.330Z,2.00
2018-08-12T18:26:17.352Z,1.80
2018-08-12T18:28:46.252Z,1.83
2018-08-12T18:31:15.126Z,2.13
2018-08-12T18:33:44.072Z,2.13
2018-08-12T18:36:12.927Z,2.00
2018-08-12T18:38:41.876Z,2.10
2018-08-12T18:41:10.783Z,2.07
2018-08-12T18:43:39.627Z,1.77
2018-08-12T18:46:08.537Z,2.47
2018-08-12T18:48:37.460Z,1.80
2018-08-12T18:51:06.424Z,2.10
2018-08-12T18:53:35.417Z,1.77
2018-08-12T18:56:04.344Z,2.10
2018-08-12T18:58:33.219Z,2.00
2018-08-12T19:01:02.112Z,2.10
2018-08-12T19:03:31.045Z,1.93
2018-08-12T19:05:59.955Z,1.90
2018-08-12T19:08:28.909Z,2.00
2018-08-12T19:10:58.812Z,1.80
2018-08-12T19:13:27.696Z,1.67
2018-08-12T19:15:56.623Z,1.93
2018-08-12T19:18:25.496Z,1.83
2018-08-12T19:20:54.391Z,2.00
2018-08-12T19:23:23.377Z,1.80
2018-08-12T19:25:52.287Z,1.90
2018-08-12T19:28:21.174Z,1.67
2018-08-12T19:30:50.089Z,1.70
2018-08-12T19:33:18.993Z,1.87
2018-08-12T19:35:47.866Z,1.93
2018-08-12T19:38:16.825Z,1.87
2018-08-12T19:40:45.725Z,1.83
2018-08-12T19:43:14.625Z,2.00
2018-08-12T19:45:43.516Z,2.30
2018-08-12T19:48:12.454Z,2.37
2018-08-12T19:50:41.388Z,2.33
2018-08-12T19:53:10.603Z,2.83
2018-08-12T19:55:39.480Z,3.23
2018-08-12T19:58:08.369Z,2.60
2018-08-12T20:00:37.369Z,2.83
2018-08-12T20:03:06.733Z,3.00
2018-08-12T20:05:35.630Z,3.03
2018-08-12T20:08:04.528Z,2.47
2018-08-12T20:10:33.463Z,2.20
2018-08-12T20:13:02.350Z,2.37
2018-08-12T20:15:31.217Z,2.30
2018-08-12T20:18:00.146Z,2.20
2018-08-12T20:20:29.033Z,1.80
2018-08-12T20:22:57.983Z,2.20
2018-08-12T20:25:26.888Z,1.90
2018-08-12T20:27:55.810Z,1.90
2018-08-12T20:30:24.682Z,1.97
2018-08-12T20:32:53.581Z,1.90
2018-08-12T20:35:22.476Z,1.93
2018-08-12T20:37:51.390Z,1.90
2018-08-12T20:40:20.289Z,2.10
2018-08-12T20:42:49.214Z,2.00
2018-08-12T20:45:18.056Z,1.83
2018-08-12T20:47:46.944Z,2.10
2018-08-12T20:50:15.907Z,2.10
2018-08-12T20:52:44.769Z,2.30
2018-08-12T20:55:13.645Z,2.27
2018-08-12T20:57:42.591Z,1.57
2018-08-12T21:00:11.585Z,1.73
2018-08-12T21:02:40.499Z,2.03
2018-08-12T21:05:09.403Z,1.90
2018-08-12T21:07:40.397Z,2.10
2018-08-12T21:10:09.350Z,2.43
2018-08-12T21:12:38.252Z,2.40
2018-08-12T21:15:07.144Z,2.13
2018-08-12T21:17:36.136Z,2.00
2018-08-12T21:20:05.777Z,1.90
2018-08-12T21:22:34.648Z,2.57
2018-08-12T21:25:03.564Z,2.00
2018-08-12T21:27:33.523Z,2.10
2018-08-12T21:30:02.470Z,2.10
2018-08-12T21:32:31.373Z,2.00
2018-08-12T21:35:00.305Z,2.20
2018-08-12T21:37:29.230Z,2.03
2018-08-12T21:39:58.135Z,2.33
2018-08-12T21:42:27.100Z,2.13
2018-08-12T21:44:55.998Z,2.10
2018-08-12T21:47:24.905Z,2.20
2018-08-12T21:49:53.828Z,1.93
2018-08-12T21:52:22.697Z,2.00
2018-08-12T21:54:51.598Z,1.93
2018-08-12T21:57:20.496Z,1.83
2018-08-12T21:59:49.439Z,2.03
2018-08-12T22:02:18.290Z,2.17
2018-08-12T22:04:47.203Z,2.13
2018-08-12T22:07:17.126Z,1.70
2018-08-12T22:09:46.056Z,1.80
2018-08-12T22:12:14.965Z,2.10
2018-08-12T22:14:43.877Z,2.20
2018-08-12T22:17:12.798Z,2.00
2018-08-12T22:19:41.880Z,2.57
2018-08-12T22:22:10.798Z,1.90
2018-08-12T22:24:39.687Z,2.30
2018-08-12T22:27:08.631Z,1.90
2018-08-12T22:29:37.511Z,2.10
2018-08-12T22:32:06.653Z,2.17
2018-08-12T22:34:35.912Z,1.90
2018-08-12T22:37:05.011Z,1.83
2018-08-12T22:39:33.989Z,2.17
2018-08-12T22:42:02.878Z,1.93
2018-08-12T22:44:31.821Z,1.73
2018-08-12T22:47:00.707Z,1.77
2018-08-12T22:49:29.609Z,1.90
2018-08-12T22:51:58.494Z,2.00
2018-08-12T22:54:27.421Z,1.80
2018-08-12T22:56:56.327Z,2.00
2018-08-12T22:59:25.326Z,2.23
2018-08-12T23:01:54.226Z,2.30
2018-08-12T23:04:23.149Z,2.10
2018-08-12T23:06:52.033Z,2.13
2018-08-12T23:09:20.932Z,1.93
2018-08-12T23:11:49.813Z,2.00
2018-08-12T23:14:18.685Z,1.80
2018-08-12T23:16:59.025Z,2.00
2018-08-12T23:19:28.138Z,1.93
2018-08-12T23:21:57.072Z,2.10
2018-08-12T23:24:25.976Z,2.10
2018-08-12T23:26:54.932Z,1.97
2018-08-12T23:29:23.804Z,2.30
2018-08-12T23:31:52.727Z,2.13
2018-08-12T23:34:21.624Z,1.87
2018-08-12T23:36:50.538Z,1.80
2018-08-12T23:39:19.426Z,1.90
2018-08-12T23:41:48.321Z,1.97
2018-08-12T23:44:17.229Z,1.90
2018-08-12T23:46:46.108Z,1.83
2018-08-12T23:49:15.033Z,2.03
2018-08-12T23:51:43.925Z,1.93
2018-08-12T23:54:12.836Z,1.90
2018-08-12T23:56:41.716Z,1.87
2018-08-12T23:59:10.637Z,2.10
